createdAt,value
2023-03-04T00:02:30.938Z,100.00
2023-03-04T00:05:33.941Z,100.00
2023-03-04T00:08:36.599Z,100.00
2023-03-04T00:11:39.586Z,100.00
2023-03-04T00:14:42.451Z,100.00
2023-03-04T00:17:46.302Z,100.00
2023-03-04T00:20:49.816Z,100.00
2023-03-04T00:23:52.893Z,100.00
2023-03-04T00:26:55.454Z,100.00
2023-03-04T00:29:58.570Z,100.00
2023-03-04T00:33:01.200Z,100.00
2023-03-04T00:36:05.093Z,100.00
2023-03-04T00:39:07.906Z,100.00
2023-03-04T00:42:11.150Z,100.00
2023-03-04T00:45:14.459Z,100.00
2023-03-04T00:48:17.612Z,100.00
2023-03-04T00:51:20.249Z,100.00
2023-03-04T00:54:23.248Z,100.00
2023-03-04T00:57:25.896Z,100.00
2023-03-04T01:00:29.457Z,100.00
2023-03-04T01:03:33.237Z,100.00
2023-03-04T01:06:36.539Z,100.00
2023-03-04T01:09:39.240Z,100.00
2023-03-04T01:12:43.028Z,100.00
2023-03-04T01:15:45.674Z,100.00
2023-03-04T01:18:48.947Z,100.00
2023-03-04T01:21:51.683Z,100.00
2023-03-04T01:24:54.634Z,100.00
2023-03-04T01:27:57.331Z,100.00
2023-03-04T01:31:00.386Z,100.00
2023-03-04T01:34:03.128Z,100.00
2023-03-04T01:37:06.345Z,100.00
2023-03-04T01:40:09.939Z,100.00
2023-03-04T01:43:22.806Z,100.00
2023-03-04T01:46:25.544Z,100.00
2023-03-04T01:49:28.969Z,100.00
2023-03-04T01:52:32.027Z,100.00
2023-03-04T01:55:35.016Z,100.00
2023-03-04T01:58:37.705Z,100.00
2023-03-04T02:01:44.259Z,100.00
2023-03-04T02:04:47.399Z,100.00
2023-03-04T02:07:52.109Z,100.00
2023-03-04T02:10:55.530Z,100.00
2023-03-04T02:13:58.816Z,100.00
2023-03-04T02:17:01.496Z,100.00
2023-03-04T02:20:23.400Z,100.00
2023-03-04T02:23:49.881Z,100.00
2023-03-04T02:26:53.308Z,100.00
2023-03-04T02:29:55.982Z,100.00
2023-03-04T02:32:59.386Z,100.00
2023-03-04T02:36:02.135Z,100.00
2023-03-04T02:39:14.658Z,100.00
2023-03-04T02:42:18.701Z,100.00
2023-03-04T02:45:51.974Z,100.00
2023-03-04T02:48:54.994Z,100.00
2023-03-04T02:52:04.808Z,100.00
2023-03-04T02:55:07.833Z,100.00
2023-03-04T02:58:12.657Z,100.00
2023-03-04T03:01:15.340Z,100.00
2023-03-04T03:04:19.972Z,100.00
2023-03-04T03:07:22.705Z,100.00
2023-03-04T03:10:27.202Z,100.00
2023-03-04T03:13:30.085Z,100.00
2023-03-04T03:16:33.318Z,100.00
2023-03-04T03:19:36.259Z,100.00
2023-03-04T03:22:41.641Z,100.00
2023-03-04T03:25:44.963Z,100.00
2023-03-04T03:28:48.073Z,100.00
2023-03-04T03:31:51.005Z,100.00
2023-03-04T03:34:54.738Z,100.00
2023-03-04T03:37:57.511Z,100.00
2023-03-04T03:41:00.572Z,100.00
2023-03-04T03:44:03.303Z,100.00
2023-03-04T03:47:06.282Z,100.00
2023-03-04T03:50:09.412Z,100.00
2023-03-04T03:53:12.701Z,100.00
2023-03-04T03:56:15.343Z,100.00
2023-03-04T03:59:18.683Z,100.00
2023-03-04T04:02:22.223Z,100.00
2023-03-04T04:05:25.486Z,100.00
2023-03-04T04:08:41.834Z,100.00
2023-03-04T04:11:44.944Z,100.00
2023-03-04T04:14:47.860Z,100.00
2023-03-04T04:17:51.139Z,100.00
2023-03-04T04:20:54.350Z,100.00
2023-03-04T04:23:57.351Z,100.00
2023-03-04T04:27:00.183Z,100.00
2023-03-04T04:30:05.233Z,100.00
2023-03-04T04:33:09.057Z,100.00
2023-03-04T04:36:15.608Z,100.00
2023-03-04T04:39:18.336Z,100.00
2023-03-04T04:42:22.695Z,100.00
2023-03-04T04:45:25.862Z,100.00
2023-03-04T04:48:28.818Z,100.00
2023-03-04T04:51:32.002Z,100.00
2023-03-04T04:54:35.001Z,100.00
2023-03-04T04:57:38.392Z,100.00
2023-03-04T05:00:41.857Z,100.00
2023-03-04T05:03:44.594Z,100.00
2023-03-04T05:06:47.652Z,100.00
2023-03-04T05:09:50.350Z,100.00
2023-03-04T05:12:53.337Z,100.00
2023-03-04T05:15:57.222Z,100.00
2023-03-04T05:19:00.234Z,100.00
2023-03-04T05:22:03.421Z,100.00
2023-03-04T05:25:07.240Z,100.00
2023-03-04T05:28:12.534Z,100.00
2023-03-04T05:31:15.680Z,100.00
2023-03-04T05:34:18.716Z,100.00
2023-03-04T05:37:21.662Z,100.00
2023-03-04T05:40:25.848Z,100.00
2023-03-04T05:43:29.115Z,100.00
2023-03-04T05:46:33.555Z,100.00
2023-03-04T05:49:36.752Z,100.00
2023-03-04T05:52:39.461Z,100.00
2023-03-04T05:55:47.354Z,100.00
2023-03-04T05:58:50.063Z,100.00
2023-03-04T06:01:53.031Z,100.00
2023-03-04T06:04:56.669Z,100.00
2023-03-04T06:07:59.254Z,100.00
2023-03-04T06:11:02.895Z,92.23
2023-03-04T06:14:05.997Z,78.88
2023-03-04T06:17:08.993Z,70.59
2023-03-04T06:20:12.238Z,64.92
2023-03-04T06:23:15.205Z,61.19
2023-03-04T06:26:17.843Z,58.50
2023-03-04T06:29:21.337Z,56.16
2023-03-04T06:32:24.453Z,52.68
2023-03-04T06:35:27.541Z,52.42
2023-03-04T06:38:30.201Z,49.80
2023-03-04T06:41:34.097Z,47.58
2023-03-04T06:44:36.788Z,45.90
2023-03-04T06:47:40.049Z,48.20
2023-03-04T06:50:42.687Z,47.83
2023-03-04T06:53:46.060Z,49.36
2023-03-04T06:56:48.767Z,47.34
2023-03-04T06:59:51.746Z,46.96
2023-03-04T07:02:55.291Z,45.81
2023-03-04T07:05:58.254Z,44.29
2023-03-04T07:09:01.044Z,42.23
2023-03-04T07:12:04.560Z,42.60
2023-03-04T07:15:07.654Z,41.13
2023-03-04T07:18:10.592Z,40.87
2023-03-04T07:21:14.708Z,40.90
2023-03-04T07:24:17.742Z,41.33
2023-03-04T07:27:20.349Z,43.27
2023-03-04T07:30:23.398Z,38.72
2023-03-04T07:33:26.182Z,39.28
2023-03-04T07:36:29.847Z,40.49
2023-03-04T07:39:32.575Z,40.87
2023-03-04T07:42:35.535Z,39.80
2023-03-04T07:45:38.709Z,40.02
2023-03-04T07:48:41.684Z,38.18
2023-03-04T07:51:44.539Z,35.27
2023-03-04T07:54:47.440Z,34.36
2023-03-04T07:57:50.160Z,34.12
2023-03-04T08:00:53.214Z,34.38
2023-03-04T08:03:56.527Z,36.14
2023-03-04T08:06:59.198Z,35.12
2023-03-04T08:10:02.133Z,32.08
2023-03-04T08:13:05.301Z,31.19
2023-03-04T08:16:09.179Z,33.19
2023-03-04T08:19:12.540Z,30.83
2023-03-04T08:22:15.503Z,30.66
2023-03-04T08:25:18.175Z,31.35
2023-03-04T08:28:21.180Z,31.56
2023-03-04T08:31:24.844Z,31.67
2023-03-04T08:34:29.212Z,32.32
2023-03-04T08:37:31.969Z,32.19
2023-03-04T08:40:35.001Z,33.94
2023-03-04T08:43:37.788Z,35.29
2023-03-04T08:46:43.051Z,34.30
2023-03-04T08:49:45.700Z,31.14
2023-03-04T08:52:49.003Z,32.57
2023-03-04T08:55:53.108Z,43.98
2023-03-04T08:58:56.147Z,51.20
2023-03-04T09:01:59.229Z,54.28
2023-03-04T09:05:04.401Z,55.62
2023-03-04T09:08:07.474Z,57.95
2023-03-04T09:11:11.178Z,59.03
2023-03-04T09:14:13.856Z,59.62
2023-03-04T09:17:16.874Z,60.50
2023-03-04T09:20:21.138Z,57.94
2023-03-04T09:23:24.170Z,57.44
2023-03-04T09:26:29.407Z,56.84
2023-03-04T09:29:32.634Z,58.08
2023-03-04T09:32:35.409Z,56.64
2023-03-04T09:35:38.647Z,56.25
2023-03-04T09:38:44.569Z,58.58
2023-03-04T09:41:50.566Z,57.36
2023-03-04T09:44:54.732Z,56.04
2023-03-04T09:47:58.212Z,56.79
2023-03-04T09:51:22.992Z,56.17
2023-03-04T09:55:05.086Z,56.90
2023-03-04T09:58:13.368Z,56.10
2023-03-04T10:01:21.938Z,56.77
2023-03-04T10:04:40.111Z,58.81
2023-03-04T10:07:46.646Z,58.84
2023-03-04T10:10:51.880Z,58.31
2023-03-04T10:13:58.223Z,57.56
2023-03-04T10:17:25.041Z,58.99
2023-03-04T10:20:33.165Z,59.26
2023-03-04T10:23:37.694Z,58.59
2023-03-04T10:26:44.527Z,58.14
2023-03-04T10:29:49.097Z,58.79
2023-03-04T10:32:51.939Z,58.74
2023-03-04T10:36:16.304Z,58.68
2023-03-04T10:39:34.702Z,59.08
2023-03-04T10:42:38.571Z,57.89
2023-03-04T10:45:41.424Z,56.64
2023-03-04T10:48:45.472Z,57.50
2023-03-04T10:51:51.911Z,59.04
2023-03-04T10:54:57.909Z,58.44
2023-03-04T10:58:06.436Z,56.37
2023-03-04T11:01:16.625Z,56.68
2023-03-04T11:04:19.351Z,58.52
2023-03-04T11:07:24.847Z,57.41
2023-03-04T11:10:36.680Z,57.60
2023-03-04T11:13:52.624Z,58.53
2023-03-04T11:17:02.711Z,56.83
2023-03-04T11:20:21.213Z,57.02
2023-03-04T11:23:46.344Z,55.81
2023-03-04T11:26:54.374Z,57.19
2023-03-04T11:30:13.509Z,56.19
2023-03-04T11:33:42.334Z,57.02
2023-03-04T11:36:57.562Z,57.13
2023-03-04T11:40:12.313Z,57.29
2023-03-04T11:43:42.106Z,56.43
2023-03-04T11:46:50.863Z,55.12
2023-03-04T11:49:59.653Z,55.19
2023-03-04T11:53:20.806Z,55.00
2023-03-04T11:56:42.197Z,55.46
2023-03-04T12:00:22.396Z,55.90
2023-03-04T12:03:57.715Z,54.09
2023-03-04T12:07:06.535Z,54.40
2023-03-04T12:10:40.122Z,55.22
2023-03-04T12:13:48.286Z,54.96
2023-03-04T12:17:22.344Z,55.06
2023-03-04T12:20:46.399Z,54.40
2023-03-04T12:24:10.940Z,55.20
2023-03-04T12:27:36.487Z,54.29
2023-03-04T12:31:03.310Z,54.36
2023-03-04T12:34:30.331Z,54.40
2023-03-04T12:37:53.017Z,55.52
2023-03-04T12:41:04.490Z,53.79
2023-03-04T12:44:10.383Z,54.84
2023-03-04T12:48:02.121Z,55.64
2023-03-04T12:51:19.895Z,55.33
2023-03-04T12:54:29.308Z,54.64
2023-03-04T12:57:33.423Z,52.86
2023-03-04T13:00:36.093Z,53.46
2023-03-04T13:03:56.715Z,55.13
2023-03-04T13:07:18.403Z,54.03
2023-03-04T13:10:23.591Z,55.04
2023-03-04T13:13:37.892Z,53.35
2023-03-04T13:16:45.365Z,53.71
2023-03-04T13:19:52.678Z,53.82
2023-03-04T13:23:05.047Z,53.78
2023-03-04T13:26:23.277Z,54.51
2023-03-04T13:29:26.182Z,53.64
2023-03-04T13:32:38.921Z,54.44
2023-03-04T13:36:01.852Z,54.53
2023-03-04T13:39:16.979Z,52.86
2023-03-04T13:42:47.166Z,53.82
2023-03-04T13:45:49.915Z,53.51
2023-03-04T13:48:52.894Z,54.22
2023-03-04T13:51:55.625Z,54.29
2023-03-04T13:55:35.981Z,54.89
2023-03-04T13:58:39.714Z,55.85
2023-03-04T14:01:55.729Z,55.40
2023-03-04T14:05:01.118Z,55.98
2023-03-04T14:08:25.939Z,55.51
2023-03-04T14:11:41.822Z,55.81
2023-03-04T14:14:50.214Z,55.59
2023-03-04T14:17:56.572Z,56.77
2023-03-04T14:21:00.776Z,55.59
2023-03-04T14:24:12.659Z,56.03
2023-03-04T14:27:15.412Z,55.65
2023-03-04T14:30:31.836Z,54.98
2023-03-04T14:33:38.737Z,54.81
2023-03-04T14:36:44.367Z,54.91
2023-03-04T14:39:51.496Z,55.33
2023-03-04T14:43:05.904Z,55.75
2023-03-04T14:46:13.752Z,56.06
2023-03-04T14:49:17.242Z,56.74
2023-03-04T14:52:31.695Z,56.43
2023-03-04T14:55:35.253Z,57.30
2023-03-04T14:58:51.503Z,56.84
2023-03-04T15:01:54.484Z,56.91
2023-03-04T15:05:00.318Z,57.35
2023-03-04T15:08:25.537Z,57.48
2023-03-04T15:11:45.197Z,57.75
2023-03-04T15:14:51.980Z,58.05
2023-03-04T15:18:23.013Z,58.27
2023-03-04T15:21:38.518Z,58.49
2023-03-04T15:24:41.232Z,57.65
2023-03-04T15:27:45.981Z,56.41
2023-03-04T15:30:48.867Z,56.95
2023-03-04T15:33:52.516Z,56.15
2023-03-04T15:36:58.192Z,56.59
2023-03-04T15:40:02.977Z,55.26
2023-03-04T15:43:07.727Z,52.29
2023-03-04T15:46:12.271Z,51.65
2023-03-04T15:49:15.342Z,51.58
2023-03-04T15:52:22.419Z,51.63
2023-03-04T15:55:25.183Z,52.00
2023-03-04T15:58:29.271Z,51.19
2023-03-04T16:01:32.470Z,52.38
2023-03-04T16:04:35.488Z,52.18
2023-03-04T16:07:40.623Z,53.26
2023-03-04T16:10:44.934Z,52.46
2023-03-04T16:13:48.000Z,50.70
2023-03-04T16:16:52.338Z,50.53
2023-03-04T16:19:55.114Z,49.96
2023-03-04T16:23:00.862Z,51.41
2023-03-04T16:26:03.520Z,52.54
2023-03-04T16:29:16.664Z,54.09
2023-03-04T16:32:19.974Z,55.56
2023-03-04T16:35:27.843Z,56.28
2023-03-04T16:38:34.518Z,57.45
2023-03-04T16:41:37.629Z,58.26
2023-03-04T16:44:40.257Z,58.69
2023-03-04T16:47:43.218Z,59.22
2023-03-04T16:50:46.412Z,60.67
2023-03-04T16:53:53.577Z,61.48
2023-03-04T16:56:57.518Z,62.54
2023-03-04T17:00:01.496Z,64.67
2023-03-04T17:03:04.446Z,65.90
2023-03-04T17:06:07.635Z,64.58
2023-03-04T17:09:11.497Z,65.13
2023-03-04T17:12:14.609Z,65.73
2023-03-04T17:15:17.764Z,67.44
2023-03-04T17:18:20.809Z,69.91
2023-03-04T17:21:25.825Z,71.19
2023-03-04T17:24:28.981Z,73.10
2023-03-04T17:27:31.789Z,73.92
2023-03-04T17:30:34.851Z,74.81
2023-03-04T17:33:37.832Z,75.76
2023-03-04T17:36:40.963Z,75.21
2023-03-04T17:39:43.695Z,76.05
2023-03-04T17:42:46.640Z,76.17
2023-03-04T17:45:49.412Z,76.78
2023-03-04T17:48:57.512Z,76.45
2023-03-04T17:52:03.371Z,77.88
2023-03-04T17:55:06.817Z,78.61
2023-03-04T17:58:11.330Z,79.93
2023-03-04T18:01:23.994Z,80.19
2023-03-04T18:04:27.197Z,80.69
2023-03-04T18:07:30.065Z,81.27
2023-03-04T18:10:34.035Z,81.70
2023-03-04T18:13:41.093Z,82.48
2023-03-04T18:16:44.293Z,83.21
2023-03-04T18:19:46.964Z,83.48
2023-03-04T18:22:50.165Z,84.76
2023-03-04T18:25:52.955Z,84.12
2023-03-04T18:28:56.937Z,84.54
2023-03-04T18:32:00.640Z,82.94
2023-03-04T18:35:04.058Z,83.58
2023-03-04T18:38:06.722Z,83.38
2023-03-04T18:41:12.944Z,83.41
2023-03-04T18:44:15.638Z,84.11
2023-03-04T18:47:18.599Z,83.93
2023-03-04T18:50:24.157Z,84.31
2023-03-04T18:53:30.021Z,84.77
2023-03-04T18:56:38.562Z,85.82
2023-03-04T18:59:46.127Z,86.86
2023-03-04T19:03:02.833Z,87.99
2023-03-04T19:06:06.760Z,87.06
2023-03-04T19:09:09.594Z,87.11
2023-03-04T19:12:12.980Z,87.26
2023-03-04T19:15:15.842Z,86.68
2023-03-04T19:18:19.072Z,85.22
2023-03-04T19:21:21.709Z,84.42
2023-03-04T19:24:25.144Z,84.42
2023-03-04T19:27:28.539Z,82.73
2023-03-04T19:30:31.910Z,81.67
2023-03-04T19:33:38.956Z,81.64
2023-03-04T19:36:42.094Z,82.04
2023-03-04T19:39:45.275Z,81.85
2023-03-04T19:42:48.202Z,82.30
2023-03-04T19:45:54.935Z,81.05
2023-03-04T19:48:58.457Z,80.56
2023-03-04T19:52:02.088Z,80.45
2023-03-04T19:55:05.861Z,80.28
2023-03-04T19:58:08.541Z,79.64
2023-03-04T20:01:33.021Z,80.01
2023-03-04T20:04:36.264Z,79.35
2023-03-04T20:07:39.789Z,81.44
2023-03-04T20:10:42.947Z,82.67
2023-03-04T20:13:45.688Z,83.58
2023-03-04T20:16:48.707Z,84.61
2023-03-04T20:19:52.323Z,83.26
2023-03-04T20:22:56.304Z,84.66
2023-03-04T20:25:59.001Z,85.98
2023-03-04T20:29:02.129Z,87.36
2023-03-04T20:32:05.557Z,89.18
2023-03-04T20:35:14.050Z,88.84
2023-03-04T20:38:16.743Z,90.09
2023-03-04T20:41:19.823Z,90.79
2023-03-04T20:44:22.503Z,89.29
2023-03-04T20:47:25.474Z,88.27
2023-03-04T20:50:28.509Z,88.05
2023-03-04T20:53:31.445Z,87.82
2023-03-04T20:56:35.713Z,88.84
2023-03-04T20:59:40.164Z,89.43
2023-03-04T21:02:42.819Z,90.33
2023-03-04T21:05:45.728Z,90.88
2023-03-04T21:08:48.872Z,91.64
2023-03-04T21:11:52.008Z,92.36
2023-03-04T21:14:54.855Z,92.53
2023-03-04T21:17:57.913Z,92.96
2023-03-04T21:21:00.656Z,93.82
2023-03-04T21:24:04.007Z,94.57
2023-03-04T21:27:08.233Z,95.48
2023-03-04T21:30:11.932Z,95.88
2023-03-04T21:33:21.671Z,96.61
2023-03-04T21:36:24.760Z,96.96
2023-03-04T21:39:27.389Z,97.45
2023-03-04T21:42:30.373Z,98.44
2023-03-04T21:45:34.095Z,99.43
2023-03-04T21:48:37.460Z,98.90
2023-03-04T21:51:42.857Z,98.93
2023-03-04T21:54:46.416Z,99.09
2023-03-04T21:57:49.078Z,99.16
2023-03-04T22:00:52.714Z,99.06
2023-03-04T22:03:55.860Z,98.12
2023-03-04T22:06:59.410Z,97.80
2023-03-04T22:10:07.294Z,97.21
2023-03-04T22:13:13.286Z,96.85
2023-03-04T22:16:16.410Z,96.88
2023-03-04T22:19:19.242Z,96.83
2023-03-04T22:22:22.242Z,96.41
2023-03-04T22:25:25.126Z,95.89
2023-03-04T22:28:28.752Z,96.00
2023-03-04T22:31:35.370Z,96.17
2023-03-04T22:34:39.541Z,95.54
2023-03-04T22:37:43.713Z,95.01
2023-03-04T22:40:47.065Z,95.76
2023-03-04T22:43:50.009Z,95.46
2023-03-04T22:46:53.009Z,94.76
2023-03-04T22:49:55.716Z,94.42
2023-03-04T22:52:58.825Z,94.15
2023-03-04T22:56:01.527Z,94.21
2023-03-04T22:59:04.693Z,93.95
2023-03-04T23:02:07.650Z,93.50
2023-03-04T23:05:11.489Z,93.55
2023-03-04T23:08:14.285Z,93.81
2023-03-04T23:11:21.119Z,94.26
2023-03-04T23:14:23.799Z,94.09
2023-03-04T23:17:27.456Z,94.00
2023-03-04T23:20:30.153Z,93.73
2023-03-04T23:23:33.255Z,93.96
2023-03-04T23:26:39.014Z,94.00
2023-03-04T23:29:42.196Z,93.84
2023-03-04T23:32:45.100Z,93.84
2023-03-04T23:35:48.222Z,93.16
2023-03-04T23:38:51.052Z,92.84
2023-03-04T23:41:54.225Z,90.33
2023-03-04T23:44:56.896Z,88.53
2023-03-04T23:47:59.932Z,87.00
2023-03-04T23:51:02.557Z,85.42
2023-03-04T23:54:05.663Z,85.49
2023-03-04T23:57:08.346Z,85.45
